»·PEaware :: N269WW L52-L88

N269WW :: L52-L88

FLIGHT INFORMATION

Flight Status: Arrived
Operator: Privately registered:
United States
More flights under this callsign
Pilot: Keenan B. (28722)
Aircraft: CSA SportCruiser
(CRUZ)
More flights by this aircraft type
Origin: L52 Oceano Co
United States
Destination: L88 New Cuyama
United States
More flights between these airports :: More routes between these airports
Route: L52 WYNNR L88
File this flight plan on PilotEdge
Remarks:
Altitude:
(Current/Filed)
5,500ft
Speed:
(Current/Filed)
90kts
Departed: 04-Apr-20 02:26 PM
Arrived: 04-Apr-20 02:59 PM
Distance/Time
Traveled:
47nm/0:33
Distance/Time
To Go:
Arrived

Flight Plot

Page will automatically refresh every two minutes.


Map Options




Map Legend


Flown Route
Filed Route
Departure Airport
Arrival Airport
Navaid (VOR, NDB)
Fix

Horizontal Profiles

Position Reports

Time Latitude Longitude Heading Altitude Ground
Speed
04-Apr-20 14:10 35.103381 -120.624689 212 17ft 0kts
04-Apr-20 14:11 35.103381 -120.624689 212 17ft 0kts
04-Apr-20 14:12 35.103381 -120.624689 212 17ft 0kts
04-Apr-20 14:13 35.103381 -120.624689 212 17ft 0kts
04-Apr-20 14:14 35.103381 -120.624689 212 17ft 0kts
04-Apr-20 14:15 35.103381 -120.624689 212 17ft 0kts
04-Apr-20 14:16 35.103381 -120.624689 212 17ft 0kts
04-Apr-20 14:17 35.103381 -120.624689 212 17ft 0kts
04-Apr-20 14:18 35.103381 -120.624689 212 17ft 0kts
04-Apr-20 14:19 35.103381 -120.624689 212 17ft 0kts
04-Apr-20 14:20 35.103381 -120.624689 212 17ft 0kts
04-Apr-20 14:21 35.103050 -120.624212 129 17ft 2kts
04-Apr-20 14:22 35.101869 -120.622288 229 17ft 0kts
04-Apr-20 14:23 35.099999 -120.620428 125 17ft 17kts
04-Apr-20 14:23 35.099771 -120.619991 122 17ft 0kts
04-Apr-20 14:25 35.099573 -120.619456 13 17ft 0kts
04-Apr-20 14:26 35.104105 -120.629621 268 441ft 66kts
04-Apr-20 14:27 35.094975 -120.613005 95 1516ft 87kts
04-Apr-20 14:27 35.097107 -120.589372 86 2422ft 85kts
04-Apr-20 14:29 35.099584 -120.556007 83 3583ft 89kts
04-Apr-20 14:30 35.101246 -120.525809 80 4557ft 89kts
04-Apr-20 14:30 35.101944 -120.500118 79 5334ft 90kts
04-Apr-20 14:31 35.106393 -120.466238 79 5655ft 105kts
04-Apr-20 14:33 35.111771 -120.424551 79 5762ft 105kts
04-Apr-20 14:33 35.113962 -120.394085 78 5647ft 107kts
04-Apr-20 14:34 35.118753 -120.358595 75 5542ft 106kts
04-Apr-20 14:35 35.122449 -120.327417 71 5478ft 101kts
04-Apr-20 14:36 35.124429 -120.293327 97 5477ft 103kts
04-Apr-20 14:37 35.117672 -120.259972 102 5534ft 104kts
04-Apr-20 14:38 35.114666 -120.226372 86 5664ft 96kts
04-Apr-20 14:39 35.114241 -120.193127 95 5683ft 104kts
04-Apr-20 14:40 35.108601 -120.158364 110 5714ft 106kts
04-Apr-20 14:41 35.099094 -120.123679 113 5660ft 106kts
04-Apr-20 14:42 35.088198 -120.090977 118 5599ft 105kts
04-Apr-20 14:43 35.075853 -120.059467 115 5551ft 103kts
04-Apr-20 14:44 35.064803 -120.027570 118 5508ft 101kts
04-Apr-20 14:45 35.052678 -119.996939 121 5473ft 98kts
04-Apr-20 14:46 35.040299 -119.968158 126 5463ft 93kts
04-Apr-20 14:47 35.029341 -119.937785 112 5548ft 101kts
04-Apr-20 14:48 35.017705 -119.903720 121 5688ft 114kts
04-Apr-20 14:49 35.006485 -119.866701 112 5004ft 118kts
04-Apr-20 14:50 34.995451 -119.832373 122 4192ft 98kts
04-Apr-20 14:51 34.983980 -119.804849 119 3771ft 85kts
04-Apr-20 14:52 34.974591 -119.778286 125 3410ft 82kts
04-Apr-20 14:53 34.961723 -119.750903 123 3516ft 97kts
04-Apr-20 14:54 34.950226 -119.722522 121 3267ft 91kts
04-Apr-20 14:55 34.938987 -119.695139 121 2920ft 90kts
04-Apr-20 14:56 34.925616 -119.674890 126 2795ft 70kts
04-Apr-20 14:57 34.936055 -119.675697 288 2414ft 56kts
04-Apr-20 14:58 34.940739 -119.687511 295 2167ft 28kts
04-Apr-20 14:59 34.942801 -119.690949 138 2155ft 0kts
04-Apr-20 15:00 34.942700 -119.690647 348 2155ft 0kts
04-Apr-20 15:01 34.942700 -119.690647 348 2155ft 0kts
04-Apr-20 15:02 34.942700 -119.690647 348 2155ft 0kts

Navigation Log

Ident Type
Flight plan parsing failed, navigation log unavailable